Time;durP1;ratioP1;P1;durP2;ratioP2;P2;SDS_P1;SDS_P2;PMS_P1;PMS_P2;Temp;Humidity;BMP_temperature;BMP_pressure;BME280_temperature;BME280_humidity;BME280_pressure;Samples;Min_cycle;Max_cycle;Signal;HPM_P1;HPM_P2
2024/01/21 00:01:17;;;;;;;20.40;9.77;;;3.80;57.10;;;;;;5101181;28;20111;-73
2024/01/21 00:03:43;;;;;;;16.47;9.53;;;3.80;57.10;;;;;;5094581;28;20111;-73
2024/01/21 00:06:09;;;;;;;19.03;9.47;;;3.80;57.10;;;;;;5094968;28;20053;-73
2024/01/21 00:08:34;;;;;;;17.47;9.43;;;3.80;57.00;;;;;;5095498;28;20027;-73
2024/01/21 00:11:00;;;;;;;17.03;9.97;;;3.80;57.00;;;;;;5094667;28;20111;-73
2024/01/21 00:13:26;;;;;;;16.83;9.37;;;3.90;57.00;;;;;;5093837;28;20050;-73
2024/01/21 00:15:52;;;;;;;15.17;8.27;;;3.80;56.90;;;;;;5094541;28;20024;-73
2024/01/21 00:18:17;;;;;;;13.00;7.57;;;3.80;56.90;;;;;;5093569;28;20028;-73
2024/01/21 00:20:43;;;;;;;15.20;8.23;;;3.80;56.90;;;;;;5093402;28;20371;-73
2024/01/21 00:23:09;;;;;;;14.90;7.47;;;3.80;56.90;;;;;;5094127;28;20024;-73
2024/01/21 00:25:35;;;;;;;16.20;8.47;;;3.80;56.80;;;;;;5093353;28;20034;-73
2024/01/21 00:28:01;;;;;;;15.53;7.77;;;3.80;56.90;;;;;;5094550;28;20020;-73
2024/01/21 00:30:27;;;;;;;15.07;7.93;;;3.80;56.90;;;;;;5094586;28;20402;-73
2024/01/21 00:32:53;;;;;;;13.23;7.43;;;3.80;56.90;;;;;;5093388;28;20364;-73
2024/01/21 00:35:18;;;;;;;15.17;7.80;;;3.80;56.90;;;;;;5094727;28;20016;-73
2024/01/21 00:37:44;;;;;;;13.13;6.77;;;3.80;56.80;;;;;;5094440;28;20069;-73
2024/01/21 00:40:10;;;;;;;13.43;7.13;;;3.80;56.80;;;;;;5093043;28;20131;-73
2024/01/21 00:42:36;;;;;;;11.90;6.83;;;3.80;56.70;;;;;;5092836;28;20020;-73
2024/01/21 00:45:02;;;;;;;12.67;6.73;;;3.80;56.70;;;;;;5093806;28;20032;-73
2024/01/21 00:47:29;;;;;;;14.63;8.03;;;3.80;56.80;;;;;;5094195;28;20057;-73
2024/01/21 00:49:55;;;;;;;14.00;7.43;;;3.80;56.80;;;;;;5094121;28;20020;-73
2024/01/21 00:52:21;;;;;;;12.57;6.87;;;3.80;56.70;;;;;;5093889;28;20464;-73
2024/01/21 00:54:46;;;;;;;12.37;7.00;;;3.80;56.60;;;;;;5092650;28;20016;-73
2024/01/21 00:57:12;;;;;;;13.20;6.90;;;3.80;56.60;;;;;;5094711;28;20452;-73
2024/01/21 00:59:38;;;;;;;12.70;6.93;;;3.80;56.50;;;;;;5093750;28;20352;-73
2024/01/21 01:02:04;;;;;;;12.83;7.57;;;3.80;56.30;;;;;;5094222;28;20039;-73
2024/01/21 01:04:29;;;;;;;12.27;6.50;;;3.70;56.30;;;;;;5092773;28;20040;-73
2024/01/21 01:06:55;;;;;;;11.90;6.53;;;3.70;56.20;;;;;;5093514;28;20030;-73
2024/01/21 01:09:21;;;;;;;11.93;6.30;;;3.80;56.10;;;;;;5092349;28;20451;-73
2024/01/21 01:11:46;;;;;;;12.53;6.43;;;3.70;55.80;;;;;;5092871;28;20059;-73
2024/01/21 01:14:12;;;;;;;12.87;6.27;;;3.70;55.70;;;;;;5093157;28;20090;-73
2024/01/21 01:16:39;;;;;;;11.07;5.07;;;3.70;55.70;;;;;;5094956;28;20530;-73
2024/01/21 01:19:08;;;;;;;9.93;5.47;;;3.70;55.60;;;;;;5093912;28;20026;-73
2024/01/21 01:21:35;;;;;;;10.63;5.83;;;3.70;55.50;;;;;;5092532;28;20039;-73
2024/01/21 01:24:01;;;;;;;12.30;5.90;;;3.70;55.50;;;;;;5084389;28;20020;-74
2024/01/21 01:26:26;;;;;;;13.13;6.60;;;3.60;55.50;;;;;;5090289;28;20097;-73
2024/01/21 01:28:52;;;;;;;12.53;5.80;;;3.60;55.50;;;;;;5093579;28;20074;-73
2024/01/21 01:31:18;;;;;;;13.00;6.10;;;3.60;55.50;;;;;;5093284;28;20173;-73
2024/01/21 01:33:44;;;;;;;14.63;6.30;;;3.60;55.40;;;;;;5092737;28;20121;-73
2024/01/21 01:36:10;;;;;;;12.80;6.73;;;3.60;55.40;;;;;;5092729;28;20115;-73
2024/01/21 01:38:36;;;;;;;12.00;6.30;;;3.60;55.30;;;;;;5092232;28;20395;-73
2024/01/21 01:41:02;;;;;;;12.67;6.63;;;3.60;55.40;;;;;;5092937;28;20036;-73
2024/01/21 01:43:28;;;;;;;13.53;6.43;;;3.60;55.40;;;;;;5091986;28;20093;-73
2024/01/21 01:45:54;;;;;;;13.07;6.70;;;3.60;55.40;;;;;;5090704;28;20107;-73
2024/01/21 01:48:22;;;;;;;12.50;6.17;;;3.60;55.40;;;;;;5092209;28;20335;-73
2024/01/21 01:50:49;;;;;;;12.60;6.67;;;3.50;55.30;;;;;;5092659;28;20055;-73
2024/01/21 01:53:16;;;;;;;14.20;6.20;;;3.50;55.30;;;;;;5092890;28;20036;-73
2024/01/21 01:55:46;;;;;;;10.57;6.00;;;3.50;55.30;;;;;;5092576;28;20452;-73
2024/01/21 01:58:15;;;;;;;10.67;5.50;;;3.50;55.40;;;;;;5091699;28;20341;-73
2024/01/21 02:00:41;;;;;;;11.27;6.13;;;3.50;55.50;;;;;;5092463;28;20024;-72
2024/01/21 02:03:08;;;;;;;10.43;5.93;;;3.50;55.50;;;;;;5092710;28;20036;-72
2024/01/21 02:05:35;;;;;;;12.80;6.87;;;3.50;55.60;;;;;;5092667;28;20051;-72
2024/01/21 02:08:01;;;;;;;11.90;6.43;;;3.50;55.60;;;;;;5100573;28;20372;-72
2024/01/21 02:10:30;;;;;;;12.37;6.23;;;3.50;55.70;;;;;;5090867;28;20024;-72
2024/01/21 02:12:56;;;;;;;13.17;6.37;;;3.40;55.60;;;;;;5091522;28;20012;-72
2024/01/21 02:15:23;;;;;;;13.07;6.27;;;3.40;55.70;;;;;;5092547;28;20409;-73
2024/01/21 02:17:49;;;;;;;11.90;6.13;;;3.40;55.70;;;;;;5092494;28;20020;-72
2024/01/21 02:20:15;;;;;;;12.00;6.77;;;3.40;55.70;;;;;;5091862;28;20024;-72
2024/01/21 02:22:42;;;;;;;13.13;6.40;;;3.40;55.70;;;;;;5091688;28;20035;-72
2024/01/21 02:25:09;;;;;;;10.63;6.00;;;3.40;55.70;;;;;;5090849;28;20517;-72
2024/01/21 02:27:35;;;;;;;11.80;5.90;;;3.40;55.80;;;;;;5097204;28;20035;-72
2024/01/21 02:30:02;;;;;;;11.13;6.07;;;3.40;56.40;;;;;;5091591;28;20017;-72
2024/01/21 02:32:28;;;;;;;13.57;7.37;;;3.40;55.90;;;;;;5092543;28;20082;-72
2024/01/21 02:34:54;;;;;;;11.90;6.03;;;3.40;56.00;;;;;;5092333;28;20032;-72
2024/01/21 02:37:19;;;;;;;11.57;6.40;;;3.40;56.10;;;;;;5091149;28;20028;-72
2024/01/21 02:39:45;;;;;;;11.10;6.33;;;3.30;56.00;;;;;;5092774;28;20078;-72
2024/01/21 02:42:11;;;;;;;11.77;5.90;;;3.40;56.00;;;;;;5091471;28;20062;-72
2024/01/21 02:44:37;;;;;;;12.73;6.17;;;3.40;56.00;;;;;;5092102;28;20042;-72
2024/01/21 02:47:03;;;;;;;10.53;5.30;;;3.40;56.00;;;;;;5092175;28;20645;-72
2024/01/21 02:49:29;;;;;;;10.87;5.93;;;3.40;56.00;;;;;;5093052;28;20024;-72
2024/01/21 02:51:55;;;;;;;11.87;5.20;;;3.40;56.10;;;;;;5093036;28;20524;-72
2024/01/21 02:54:22;;;;;;;11.53;5.67;;;3.40;56.10;;;;;;5091959;28;20047;-72
2024/01/21 02:56:47;;;;;;;11.20;5.33;;;3.40;56.10;;;;;;5092027;28;20111;-72
2024/01/21 02:59:13;;;;;;;10.20;5.50;;;3.40;56.10;;;;;;5092956;28;20525;-72
2024/01/21 03:01:39;;;;;;;12.13;5.63;;;3.40;56.10;;;;;;5092398;28;20028;-72
2024/01/21 03:04:05;;;;;;;10.80;5.43;;;3.40;56.00;;;;;;5091018;28;20024;-72
2024/01/21 03:06:30;;;;;;;10.73;5.17;;;3.40;56.00;;;;;;5091014;28;20079;-72
2024/01/21 03:08:56;;;;;;;11.87;6.23;;;3.40;55.90;;;;;;5091964;28;20441;-72
2024/01/21 03:11:22;;;;;;;9.80;5.10;;;3.40;55.90;;;;;;5091455;28;20465;-72
2024/01/21 03:13:48;;;;;;;11.03;5.30;;;3.40;55.90;;;;;;5091906;28;20026;-72
2024/01/21 03:16:14;;;;;;;11.83;5.93;;;3.40;55.90;;;;;;5092266;28;20348;-72
2024/01/21 03:18:40;;;;;;;11.10;5.47;;;3.40;55.90;;;;;;5090623;28;20023;-72
2024/01/21 03:21:08;;;;;;;10.33;4.70;;;3.40;55.90;;;;;;5092476;28;20028;-71
2024/01/21 03:23:34;;;;;;;11.40;4.90;;;3.50;56.00;;;;;;5091613;28;20069;-72
2024/01/21 03:26:00;;;;;;;9.80;4.70;;;3.50;56.00;;;;;;5092770;28;20475;-72
2024/01/21 03:28:26;;;;;;;11.03;5.57;;;3.50;55.90;;;;;;5095251;28;20058;-71
2024/01/21 03:30:52;;;;;;;11.37;5.57;;;3.50;55.90;;;;;;5094441;28;20024;-72
2024/01/21 03:33:18;;;;;;;10.53;5.40;;;3.50;55.90;;;;;;5096564;28;20016;-72
2024/01/21 03:35:44;;;;;;;12.40;6.07;;;3.50;55.90;;;;;;5095487;28;20069;-72
2024/01/21 03:38:10;;;;;;;11.20;5.40;;;3.50;56.00;;;;;;5094622;28;20468;-72
2024/01/21 03:40:35;;;;;;;9.97;5.20;;;3.50;55.90;;;;;;5095155;28;20074;-72
2024/01/21 03:43:01;;;;;;;10.77;4.90;;;3.50;55.80;;;;;;5095292;28;20089;-72
2024/01/21 03:45:27;;;;;;;12.67;5.20;;;3.50;56.40;;;;;;5094013;28;20046;-71
2024/01/21 03:47:52;;;;;;;9.03;4.73;;;3.50;55.70;;;;;;5094073;28;20465;-71
2024/01/21 03:50:20;;;;;;;9.13;4.10;;;3.50;55.70;;;;;;5095176;28;20448;-72
2024/01/21 03:52:49;;;;;;;10.47;4.70;;;3.50;55.70;;;;;;5093968;28;20024;-72
2024/01/21 03:55:16;;;;;;;10.27;5.00;;;3.50;55.60;;;;;;5094227;28;20028;-72
2024/01/21 03:57:42;;;;;;;11.50;4.53;;;3.50;55.50;;;;;;5094995;28;20056;-72
2024/01/21 04:00:10;;;;;;;8.80;4.20;;;3.50;55.50;;;;;;5083390;28;20029;-72
2024/01/21 04:02:39;;;;;;;9.60;4.53;;;3.50;55.40;;;;;;5100157;28;20032;-71
2024/01/21 04:05:05;;;;;;;10.17;4.67;;;3.50;55.40;;;;;;5092570;28;20024;-71
2024/01/21 04:07:31;;;;;;;9.80;4.57;;;3.50;56.00;;;;;;5094167;28;20024;-72
2024/01/21 04:09:57;;;;;;;8.43;3.90;;;3.50;55.40;;;;;;5094737;28;20092;-71
2024/01/21 04:12:23;;;;;;;9.80;4.97;;;3.50;55.30;;;;;;5094917;28;20422;-72
2024/01/21 04:14:49;;;;;;;9.43;4.40;;;3.50;55.30;;;;;;5094506;28;20028;-72
2024/01/21 04:17:15;;;;;;;10.03;4.67;;;3.50;55.20;;;;;;5092848;28;20035;-71
2024/01/21 04:19:40;;;;;;;9.13;4.07;;;3.50;55.30;;;;;;5077237;28;20089;-72
2024/01/21 04:22:06;;;;;;;8.97;4.30;;;3.50;55.30;;;;;;5093795;28;20116;-71
2024/01/21 04:24:32;;;;;;;9.13;4.27;;;3.50;55.30;;;;;;5093457;28;20110;-72
2024/01/21 04:26:58;;;;;;;8.73;4.17;;;3.50;55.30;;;;;;5104283;28;20024;-71
2024/01/21 04:29:24;;;;;;;9.37;4.67;;;3.50;55.20;;;;;;5094588;28;20419;-71
2024/01/21 04:31:50;;;;;;;10.30;4.30;;;3.50;55.20;;;;;;5094281;28;20036;-72
2024/01/21 04:34:16;;;;;;;8.87;4.20;;;3.50;55.20;;;;;;5092117;28;20031;-72
2024/01/21 04:36:41;;;;;;;8.60;3.87;;;3.50;55.10;;;;;;5093234;28;20027;-72
2024/01/21 04:39:08;;;;;;;9.07;4.17;;;3.50;55.10;;;;;;5093589;28;20449;-72
2024/01/21 04:41:33;;;;;;;9.60;4.57;;;3.50;55.00;;;;;;5093003;28;20036;-72
2024/01/21 04:43:59;;;;;;;9.57;4.13;;;3.50;55.00;;;;;;5093307;28;20359;-71
2024/01/21 04:46:25;;;;;;;10.27;4.00;;;3.50;54.90;;;;;;5094947;28;20016;-71
2024/01/21 04:48:51;;;;;;;10.43;4.80;;;3.50;54.80;;;;;;5102648;28;20024;-71
2024/01/21 04:51:17;;;;;;;9.47;4.57;;;3.50;54.80;;;;;;5091711;28;20068;-71
2024/01/21 04:53:44;;;;;;;10.07;4.40;;;3.50;54.70;;;;;;5088396;28;20058;-71
2024/01/21 04:56:16;;;;;;;10.20;4.17;;;3.50;54.70;;;;;;5096103;28;20032;-72
2024/01/21 04:58:42;;;;;;;8.80;4.03;;;3.50;54.50;;;;;;5092906;27;20606;-72
2024/01/21 05:01:08;;;;;;;7.47;3.43;;;3.50;54.60;;;;;;5079699;28;20025;-71
2024/01/21 05:03:34;;;;;;;8.73;4.10;;;3.50;54.40;;;;;;5079732;28;20029;-71
2024/01/21 05:05:59;;;;;;;8.93;3.53;;;3.50;54.40;;;;;;5083864;28;20031;-71
2024/01/21 05:08:25;;;;;;;7.50;3.40;;;3.50;54.30;;;;;;5081530;28;20500;-72
2024/01/21 05:10:51;;;;;;;9.57;4.00;;;3.50;54.30;;;;;;5091065;28;20036;-71
2024/01/21 05:13:17;;;;;;;8.10;3.70;;;3.60;54.20;;;;;;5076898;28;20046;-72
2024/01/21 05:15:43;;;;;;;7.77;3.70;;;3.60;54.20;;;;;;5080169;28;20020;-71
2024/01/21 05:18:09;;;;;;;7.80;3.90;;;3.50;54.10;;;;;;5075775;28;20134;-72
2024/01/21 05:20:35;;;;;;;8.10;3.60;;;3.60;54.10;;;;;;5083981;28;20028;-72
2024/01/21 05:23:00;;;;;;;8.30;4.27;;;3.60;54.00;;;;;;5073305;28;20066;-72
2024/01/21 05:25:26;;;;;;;9.53;3.67;;;3.60;54.00;;;;;;5077910;28;20021;-71
2024/01/21 05:27:52;;;;;;;8.10;4.07;;;3.60;53.90;;;;;;5076655;28;20536;-71
2024/01/21 05:30:17;;;;;;;8.27;3.90;;;3.70;53.80;;;;;;5083670;28;20068;-71
2024/01/21 05:32:46;;;;;;;8.47;4.20;;;3.60;53.80;;;;;;5077021;28;20025;-72
2024/01/21 05:35:15;;;;;;;9.13;3.67;;;3.70;54.40;;;;;;5073378;28;20119;-71
2024/01/21 05:37:41;;;;;;;7.43;3.13;;;3.70;53.70;;;;;;5083606;28;20100;-71
2024/01/21 05:40:07;;;;;;;8.87;3.90;;;3.70;53.60;;;;;;5072776;28;20036;-72
2024/01/21 05:42:33;;;;;;;9.43;3.33;;;3.70;53.60;;;;;;5091653;28;20040;-71
2024/01/21 05:44:59;;;;;;;7.40;3.33;;;3.70;53.50;;;;;;5076577;28;20032;-71
2024/01/21 05:47:24;;;;;;;6.97;3.43;;;3.80;53.50;;;;;;5074554;28;20028;-71
2024/01/21 05:49:50;;;;;;;8.00;4.07;;;3.80;53.50;;;;;;5061594;28;20033;-71
2024/01/21 05:52:16;;;;;;;9.23;3.80;;;3.80;53.50;;;;;;5073129;28;20020;-71
2024/01/21 05:54:42;;;;;;;7.67;3.27;;;3.80;53.50;;;;;;5078891;28;20036;-71
2024/01/21 05:57:08;;;;;;;8.93;3.97;;;3.80;53.40;;;;;;5077865;28;20035;-71
2024/01/21 05:59:34;;;;;;;8.63;3.60;;;3.80;53.40;;;;;;5073535;28;20453;-71
2024/01/21 06:02:00;;;;;;;10.27;4.20;;;3.80;53.40;;;;;;5059183;28;20021;-71
2024/01/21 06:04:26;;;;;;;8.87;3.73;;;3.80;53.40;;;;;;5076060;28;20440;-71
2024/01/21 06:06:52;;;;;;;8.60;3.47;;;3.80;53.30;;;;;;5077449;28;20035;-72
2024/01/21 06:09:18;;;;;;;8.43;3.80;;;3.90;53.20;;;;;;5075538;28;20034;-71
2024/01/21 06:11:44;;;;;;;8.20;3.63;;;3.90;53.10;;;;;;5060713;28;20516;-72
2024/01/21 06:14:11;;;;;;;8.03;3.33;;;3.90;53.00;;;;;;5077811;28;20472;-71
2024/01/21 06:16:36;;;;;;;7.07;3.03;;;4.00;53.00;;;;;;5055473;28;20036;-71
2024/01/21 06:19:03;;;;;;;9.43;3.90;;;3.90;52.90;;;;;;5081256;28;20024;-72
2024/01/21 06:21:29;;;;;;;7.90;3.37;;;4.00;53.00;;;;;;5072945;28;20461;-71
2024/01/21 06:23:56;;;;;;;7.90;3.13;;;4.00;53.00;;;;;;5074720;28;20162;-71
2024/01/21 06:26:22;;;;;;;9.23;3.90;;;3.90;53.00;;;;;;5077145;28;20023;-71
2024/01/21 06:28:52;;;;;;;8.50;3.57;;;4.00;53.00;;;;;;5089341;28;20036;-72
2024/01/21 06:31:18;;;;;;;8.87;4.03;;;4.00;53.00;;;;;;5097852;28;20368;-72
2024/01/21 06:33:44;;;;;;;8.93;3.93;;;4.00;53.00;;;;;;5081129;28;20451;-71
2024/01/21 06:36:10;;;;;;;9.47;3.87;;;4.00;53.10;;;;;;5092474;28;20056;-71
2024/01/21 06:38:38;;;;;;;8.40;3.60;;;4.00;53.10;;;;;;5091414;28;20031;-71
2024/01/21 06:41:04;;;;;;;9.63;4.60;;;4.00;53.10;;;;;;5090909;28;20058;-71
2024/01/21 06:43:30;;;;;;;9.43;4.00;;;4.00;53.10;;;;;;5091220;28;20031;-71
2024/01/21 06:45:56;;;;;;;8.07;3.90;;;4.00;53.10;;;;;;5092222;28;20016;-71
2024/01/21 06:48:21;;;;;;;8.70;4.07;;;4.10;53.20;;;;;;5090893;28;20047;-72
2024/01/21 06:50:48;;;;;;;8.83;4.10;;;4.10;53.30;;;;;;5074583;28;20387;-71
2024/01/21 06:53:15;;;;;;;9.10;3.87;;;4.10;53.20;;;;;;5091174;28;20452;-71
2024/01/21 06:55:44;;;;;;;9.97;4.37;;;4.10;53.30;;;;;;5091491;28;20123;-71
2024/01/21 06:58:10;;;;;;;8.67;4.20;;;4.10;53.40;;;;;;5090245;28;20024;-72
2024/01/21 07:00:36;;;;;;;11.13;4.67;;;4.10;53.30;;;;;;5104085;28;20441;-71
2024/01/21 07:03:02;;;;;;;9.60;4.67;;;4.20;53.20;;;;;;5094931;28;21171;-71
2024/01/21 07:05:28;;;;;;;9.13;4.37;;;4.20;53.30;;;;;;5095550;28;20073;-72
2024/01/21 07:07:54;;;;;;;9.23;4.43;;;4.20;53.40;;;;;;5096056;28;20342;-71
2024/01/21 07:10:19;;;;;;;8.90;3.83;;;4.20;53.40;;;;;;5094703;28;20436;-71
2024/01/21 07:12:46;;;;;;;9.93;4.40;;;4.20;53.50;;;;;;5096234;28;20032;-71
2024/01/21 07:15:12;;;;;;;10.00;4.50;;;4.20;53.50;;;;;;5095324;28;20094;-71
2024/01/21 07:17:39;;;;;;;11.10;4.73;;;4.20;53.50;;;;;;5096030;28;20040;-71
2024/01/21 07:20:06;;;;;;;9.53;4.27;;;4.20;53.50;;;;;;5095563;28;20039;-71
2024/01/21 07:22:32;;;;;;;10.27;4.10;;;4.20;53.50;;;;;;5077768;28;20030;-71
2024/01/21 07:24:57;;;;;;;11.53;5.43;;;4.20;53.50;;;;;;5094660;28;20107;-71
2024/01/21 07:27:23;;;;;;;11.27;5.13;;;4.20;53.50;;;;;;5095439;28;20460;-71
2024/01/21 07:29:49;;;;;;;10.03;5.20;;;4.20;53.50;;;;;;5095683;28;20027;-71
2024/01/21 07:32:15;;;;;;;10.23;4.50;;;4.20;53.50;;;;;;5095639;28;20123;-71
2024/01/21 07:34:41;;;;;;;8.77;3.90;;;4.20;53.50;;;;;;5075887;28;20028;-71
2024/01/21 07:37:07;;;;;;;10.17;4.20;;;4.30;53.50;;;;;;5095273;28;20078;-71
2024/01/21 07:39:34;;;;;;;12.43;4.93;;;4.30;53.30;;;;;;5094718;28;20376;-71
2024/01/21 07:42:00;;;;;;;10.20;4.70;;;4.30;53.20;;;;;;5095416;28;20052;-71
2024/01/21 07:44:25;;;;;;;10.57;4.47;;;4.30;53.00;;;;;;5094126;28;20024;-71
2024/01/21 07:46:51;;;;;;;9.47;4.83;;;4.30;53.10;;;;;;5095436;28;20031;-71
2024/01/21 07:49:17;;;;;;;8.57;4.07;;;4.30;53.00;;;;;;5094211;28;20024;-71
2024/01/21 07:51:44;;;;;;;10.93;5.27;;;4.40;53.00;;;;;;5095549;28;20081;-71
2024/01/21 07:54:10;;;;;;;11.77;4.80;;;4.40;53.00;;;;;;5094015;28;20036;-71
2024/01/21 07:56:36;;;;;;;9.77;4.67;;;4.40;52.80;;;;;;5093820;28;20043;-71
2024/01/21 07:59:01;;;;;;;9.10;4.40;;;4.40;52.80;;;;;;5094990;28;20070;-71
2024/01/21 08:01:27;;;;;;;8.67;4.27;;;4.50;52.80;;;;;;5093867;28;20114;-71
2024/01/21 08:03:53;;;;;;;8.67;4.23;;;4.50;52.80;;;;;;5094851;28;20028;-71
2024/01/21 08:06:19;;;;;;;11.87;5.13;;;4.50;52.70;;;;;;5094009;28;20111;-70
2024/01/21 08:08:45;;;;;;;8.30;4.20;;;4.50;52.60;;;;;;5094086;28;20020;-73
2024/01/21 08:11:11;;;;;;;12.30;4.40;;;4.50;52.60;;;;;;5096684;28;20372;-72
2024/01/21 08:13:36;;;;;;;9.90;4.53;;;4.60;52.40;;;;;;5093624;28;20024;-72
2024/01/21 08:16:02;;;;;;;10.33;4.53;;;4.60;52.40;;;;;;5093943;28;20034;-72
2024/01/21 08:18:28;;;;;;;9.23;3.97;;;4.60;52.40;;;;;;5094338;28;20044;-71
2024/01/21 08:20:54;;;;;;;8.37;4.07;;;4.70;52.50;;;;;;5093487;28;20081;-72
2024/01/21 08:23:20;;;;;;;9.07;4.40;;;4.70;52.40;;;;;;5093535;28;20032;-71
2024/01/21 08:25:45;;;;;;;8.93;4.53;;;4.70;52.50;;;;;;5094391;28;20550;-72
2024/01/21 08:28:11;;;;;;;10.03;4.80;;;4.70;52.30;;;;;;5092609;28;20040;-70
2024/01/21 08:30:37;;;;;;;10.50;4.60;;;4.70;52.40;;;;;;5095674;28;20035;-70
2024/01/21 08:33:03;;;;;;;10.63;4.50;;;4.70;52.40;;;;;;5095007;28;20023;-69
2024/01/21 08:35:29;;;;;;;9.57;4.30;;;4.70;52.30;;;;;;5095749;28;20441;-71
2024/01/21 08:37:55;;;;;;;9.97;4.03;;;4.80;52.30;;;;;;5094970;28;20023;-71
2024/01/21 08:40:21;;;;;;;12.00;4.70;;;4.80;52.40;;;;;;5077148;28;20016;-71
2024/01/21 08:42:48;;;;;;;9.77;4.57;;;4.80;52.30;;;;;;5092116;28;20052;-71
2024/01/21 08:45:13;;;;;;;8.60;4.07;;;4.80;52.30;;;;;;5093532;28;20245;-70
2024/01/21 08:47:39;;;;;;;10.37;4.50;;;4.80;52.40;;;;;;5095393;28;20381;-70
2024/01/21 08:50:05;;;;;;;9.27;3.90;;;4.80;52.30;;;;;;5094717;28;20107;-71
2024/01/21 08:52:31;;;;;;;9.27;4.40;;;4.90;52.30;;;;;;5111844;28;20401;-70
2024/01/21 08:54:57;;;;;;;11.93;4.70;;;4.90;52.30;;;;;;5095306;28;20039;-70
2024/01/21 08:57:23;;;;;;;10.00;4.70;;;4.90;52.30;;;;;;5094441;28;20028;-70
2024/01/21 08:59:51;;;;;;;11.23;4.90;;;4.90;52.30;;;;;;5094648;28;20463;-70
2024/01/21 09:02:18;;;;;;;11.73;4.90;;;4.90;52.30;;;;;;5094692;28;20039;-70
2024/01/21 09:04:44;;;;;;;8.67;3.87;;;4.90;52.40;;;;;;5094301;28;20107;-70
2024/01/21 09:07:10;;;;;;;9.60;4.60;;;4.90;52.40;;;;;;5094435;28;20455;-70
2024/01/21 09:09:35;;;;;;;9.40;4.20;;;5.00;52.40;;;;;;5094547;28;20051;-70
2024/01/21 09:12:01;;;;;;;9.03;4.57;;;5.00;52.40;;;;;;5094640;28;20039;-70
2024/01/21 09:14:27;;;;;;;10.30;4.90;;;5.00;52.50;;;;;;5094591;28;20085;-70
2024/01/21 09:16:53;;;;;;;9.20;4.30;;;5.10;52.60;;;;;;5105147;28;20039;-70
2024/01/21 09:19:19;;;;;;;9.70;4.40;;;5.10;52.60;;;;;;5093272;28;20089;-70
2024/01/21 09:21:45;;;;;;;8.97;4.60;;;5.10;52.60;;;;;;5093860;28;20378;-70
2024/01/21 09:24:11;;;;;;;8.93;4.33;;;5.20;52.80;;;;;;5094358;28;20028;-70
2024/01/21 09:26:37;;;;;;;9.53;4.47;;;5.20;52.90;;;;;;5092609;28;20445;-70
2024/01/21 09:29:03;;;;;;;9.83;4.10;;;5.20;53.50;;;;;;5093977;28;20028;-70
2024/01/21 09:31:29;;;;;;;9.33;4.00;;;5.20;52.90;;;;;;5092736;28;20050;-70
2024/01/21 09:33:56;;;;;;;12.53;4.90;;;5.20;53.10;;;;;;5093505;28;20015;-72
2024/01/21 09:36:23;;;;;;;10.30;3.83;;;5.20;53.20;;;;;;5092917;28;20402;-71
2024/01/21 09:38:51;;;;;;;10.07;4.90;;;5.20;53.30;;;;;;5093455;28;20020;-71
2024/01/21 09:41:36;;;;;;;9.50;4.30;;;5.20;53.40;;;;;;5093784;28;20078;-70
2024/01/21 09:44:02;;;;;;;11.40;4.43;;;5.30;53.60;;;;;;5090492;28;20093;-71
2024/01/21 09:46:28;;;;;;;9.63;4.70;;;5.20;53.60;;;;;;5092597;28;20028;-70
2024/01/21 09:48:55;;;;;;;10.07;4.63;;;5.30;53.80;;;;;;5092832;28;20086;-70
2024/01/21 09:51:23;;;;;;;8.90;3.70;;;5.30;54.00;;;;;;5092685;28;20103;-70
2024/01/21 09:53:49;;;;;;;9.70;4.50;;;5.30;54.10;;;;;;5093474;28;20028;-71
2024/01/21 09:56:17;;;;;;;9.27;4.27;;;5.30;54.20;;;;;;5099006;28;20112;-70
2024/01/21 09:58:51;;;;;;;8.23;3.80;;;5.30;54.30;;;;;;5093699;28;20093;-70
2024/01/21 10:01:17;;;;;;;9.27;4.20;;;5.30;54.50;;;;;;5099447;28;20369;-71
2024/01/21 10:03:44;;;;;;;9.53;4.07;;;5.30;54.60;;;;;;5092833;28;20392;-71
2024/01/21 10:06:10;;;;;;;8.83;4.63;;;5.30;54.80;;;;;;5093377;28;20020;-71
2024/01/21 10:08:40;;;;;;;11.40;5.10;;;5.40;55.00;;;;;;5088570;28;20169;-71
2024/01/21 10:11:07;;;;;;;9.17;5.03;;;5.40;55.20;;;;;;5091456;28;20058;-71
2024/01/21 10:13:36;;;;;;;8.37;3.90;;;5.40;55.40;;;;;;5093575;28;20024;-71
2024/01/21 10:16:02;;;;;;;9.73;4.13;;;5.40;55.60;;;;;;5092588;28;20107;-71
2024/01/21 10:18:28;;;;;;;10.47;3.93;;;5.40;55.90;;;;;;5092754;28;20103;-71
2024/01/21 10:20:57;;;;;;;9.13;4.70;;;5.40;56.10;;;;;;5093141;28;20105;-71
2024/01/21 10:23:22;;;;;;;9.53;4.33;;;5.40;56.20;;;;;;5092895;28;20054;-70
2024/01/21 10:25:49;;;;;;;11.83;4.87;;;5.40;56.30;;;;;;5091705;28;20028;-72
2024/01/21 10:28:15;;;;;;;9.63;4.33;;;5.50;56.60;;;;;;5094486;28;20027;-71
2024/01/21 10:30:46;;;;;;;8.97;4.40;;;5.50;56.80;;;;;;5092197;28;20173;-72
2024/01/21 10:33:13;;;;;;;8.80;3.85;;;5.50;57.00;;;;;;5085649;28;20021;-72
2024/01/21 10:35:42;;;;;;;8.97;4.03;;;5.50;57.20;;;;;;5097124;28;20068;-72
2024/01/21 10:38:11;;;;;;;8.73;4.37;;;5.50;57.40;;;;;;5096175;28;20329;-73
2024/01/21 10:40:43;;;;;;;9.50;4.50;;;5.50;57.70;;;;;;5097524;28;20372;-72
2024/01/21 10:43:13;;;;;;;9.50;4.40;;;5.60;57.90;;;;;;5096026;28;20375;-72
2024/01/21 10:45:43;;;;;;;10.27;4.50;;;5.60;58.20;;;;;;5097581;28;20020;-72
2024/01/21 10:48:12;;;;;;;7.67;4.13;;;5.60;58.40;;;;;;5096522;28;20458;-72
2024/01/21 10:50:41;;;;;;;8.53;4.20;;;5.60;58.60;;;;;;5095640;28;20039;-73
2024/01/21 10:53:11;;;;;;;9.77;4.60;;;5.60;58.80;;;;;;5105909;27;20475;-72
2024/01/21 10:55:39;;;;;;;9.03;4.10;;;5.60;59.00;;;;;;5094785;28;20460;-72
2024/01/21 10:58:09;;;;;;;8.70;4.10;;;5.70;59.30;;;;;;5095535;28;20026;-72
2024/01/21 11:00:37;;;;;;;9.77;4.63;;;5.70;59.50;;;;;;5095883;28;20028;-71
2024/01/21 11:03:25;;;;;;;9.13;4.00;;;5.70;59.70;;;;;;5094067;28;20078;-73
2024/01/21 11:06:03;;;;;;;9.70;4.33;;;5.70;60.10;;;;;;5094388;28;20048;-73
2024/01/21 11:08:30;;;;;;;10.17;4.33;;;5.70;60.30;;;;;;5101243;27;20338;-70
2024/01/21 11:11:11;;;;;;;8.23;3.80;;;5.80;60.60;;;;;;5093288;28;20028;-72
2024/01/21 11:13:47;;;;;;;8.75;4.28;;;5.80;60.90;;;;;;5092240;28;20463;-71
2024/01/21 11:16:36;;;;;;;8.70;4.30;;;5.80;61.70;;;;;;5094688;28;20111;-70
2024/01/21 11:19:04;;;;;;;8.80;4.40;;;5.80;61.40;;;;;;5092014;28;20487;-70
2024/01/21 11:21:30;;;;;;;9.40;4.73;;;5.80;61.50;;;;;;5077275;28;20088;-70
2024/01/21 11:24:01;;;;;;;10.03;4.87;;;5.90;61.70;;;;;;5094249;28;20035;-70
2024/01/21 11:26:31;;;;;;;9.57;4.00;;;5.90;62.10;;;;;;5092661;28;20077;-70
2024/01/21 11:29:01;;;;;;;10.60;4.60;;;5.90;62.20;;;;;;5093023;28;20024;-69
2024/01/21 11:31:31;;;;;;;9.43;4.77;;;5.90;62.30;;;;;;5094137;28;20382;-72
2024/01/21 11:34:11;;;;;;;8.80;4.10;;;6.00;62.60;;;;;;5093498;28;20063;-72
2024/01/21 11:36:40;;;;;;;11.77;4.97;;;6.00;62.80;;;;;;5093904;28;20077;-72
2024/01/21 11:39:09;;;;;;;11.00;4.93;;;6.00;62.80;;;;;;5078267;28;20119;-73
2024/01/21 11:41:41;;;;;;;10.73;4.93;;;6.00;63.00;;;;;;5096474;28;20121;-69
2024/01/21 11:44:25;;;;;;;10.60;5.17;;;6.00;63.30;;;;;;5093549;28;20040;-72
2024/01/21 11:46:53;;;;;;;10.40;4.60;;;6.00;63.40;;;;;;5077436;28;20024;-72
2024/01/21 11:49:20;;;;;;;9.53;4.37;;;6.00;63.50;;;;;;5094346;28;20061;-72
2024/01/21 11:51:46;;;;;;;10.20;5.13;;;6.00;63.60;;;;;;5095656;28;20016;-69
2024/01/21 11:54:12;;;;;;;8.00;4.10;;;6.10;63.70;;;;;;5094594;28;20043;-71
2024/01/21 11:56:40;;;;;;;9.03;4.30;;;6.10;63.80;;;;;;5095208;28;20039;-70
2024/01/21 11:59:08;;;;;;;9.57;4.73;;;6.10;63.90;;;;;;5100045;28;20024;-73
2024/01/21 12:01:35;;;;;;;9.70;4.83;;;6.10;64.00;;;;;;5095167;28;20074;-72
2024/01/21 12:04:04;;;;;;;10.60;4.97;;;6.10;64.00;;;;;;5095436;28;20069;-71
2024/01/21 12:06:33;;;;;;;9.93;4.27;;;6.10;64.10;;;;;;5096860;28;20032;-71
2024/01/21 12:09:00;;;;;;;9.27;4.90;;;6.10;64.20;;;;;;5093130;28;20028;-71
2024/01/21 12:11:26;;;;;;;9.07;4.47;;;6.10;64.30;;;;;;5088435;28;20023;-71
2024/01/21 12:13:52;;;;;;;9.33;4.87;;;6.20;64.40;;;;;;5095697;28;20024;-71
2024/01/21 12:16:18;;;;;;;8.80;4.60;;;6.20;64.40;;;;;;5095153;28;20020;-71
2024/01/21 12:18:45;;;;;;;9.73;5.00;;;6.20;64.50;;;;;;5102743;28;20032;-71
2024/01/21 12:21:14;;;;;;;7.90;4.13;;;6.20;64.50;;;;;;5094955;28;20028;-71
2024/01/21 12:23:45;;;;;;;9.83;4.67;;;6.20;64.50;;;;;;5101350;28;20032;-71
2024/01/21 12:26:18;;;;;;;9.93;4.87;;;6.20;64.50;;;;;;5095059;28;20040;-71
2024/01/21 12:28:57;;;;;;;9.17;4.60;;;6.30;64.60;;;;;;5105253;27;20107;-71
2024/01/21 12:31:41;;;;;;;10.27;4.83;;;6.20;64.50;;;;;;5101386;27;20043;-71
2024/01/21 12:34:12;;;;;;;11.87;4.93;;;6.20;64.50;;;;;;5094206;28;20024;-72
2024/01/21 12:36:41;;;;;;;10.93;4.57;;;6.30;64.60;;;;;;5094889;28;20039;-71
2024/01/21 12:39:11;;;;;;;9.30;4.90;;;6.30;64.60;;;;;;5093761;28;20127;-70
2024/01/21 12:41:37;;;;;;;10.37;4.67;;;6.30;64.70;;;;;;5110681;27;20057;-71
2024/01/21 12:44:03;;;;;;;11.63;5.10;;;6.30;64.70;;;;;;5095073;28;20034;-72
2024/01/21 12:46:30;;;;;;;11.60;5.33;;;6.40;64.80;;;;;;5093923;28;20107;-71
2024/01/21 12:48:56;;;;;;;9.87;5.23;;;6.40;64.90;;;;;;5084412;28;20020;-71
2024/01/21 12:51:25;;;;;;;11.40;5.00;;;6.40;64.90;;;;;;5093388;28;20107;-72